sensor_id;sensor_type;location;lat;lon;timestamp;temperature;humidity
52725;DHT22;38621;52.830;6.914;2022-08-07T00:01:00;11.50;99.90
52725;DHT22;38621;52.830;6.914;2022-08-07T00:03:25;11.50;99.90
52725;DHT22;38621;52.830;6.914;2022-08-07T00:05:53;11.50;99.90
52725;DHT22;38621;52.830;6.914;2022-08-07T00:08:19;11.40;99.90
52725;DHT22;38621;52.830;6.914;2022-08-07T00:10:47;11.40;99.90
52725;DHT22;38621;52.830;6.914;2022-08-07T00:13:14;11.40;99.90
52725;DHT22;38621;52.830;6.914;2022-08-07T00:15:40;11.30;99.90
52725;DHT22;38621;52.830;6.914;2022-08-07T00:18:05;11.30;99.90
52725;DHT22;38621;52.830;6.914;2022-08-07T00:20:34;11.30;99.90
52725;DHT22;38621;52.830;6.914;2022-08-07T00:22:59;11.20;99.90
52725;DHT22;38621;52.830;6.914;2022-08-07T00:25:25;11.20;99.90
52725;DHT22;38621;52.830;6.914;2022-08-07T00:27:51;11.10;99.90
52725;DHT22;38621;52.830;6.914;2022-08-07T00:30:17;11.00;99.90
52725;DHT22;38621;52.830;6.914;2022-08-07T00:32:46;11.10;99.90
52725;DHT22;38621;52.830;6.914;2022-08-07T00:35:12;11.10;99.90
52725;DHT22;38621;52.830;6.914;2022-08-07T00:37:38;11.10;99.90
52725;DHT22;38621;52.830;6.914;2022-08-07T00:40:04;11.10;99.90
52725;DHT22;38621;52.830;6.914;2022-08-07T00:42:32;11.10;99.90
52725;DHT22;38621;52.830;6.914;2022-08-07T00:44:58;11.10;99.90
52725;DHT22;38621;52.830;6.914;2022-08-07T00:47:23;11.00;99.90
52725;DHT22;38621;52.830;6.914;2022-08-07T00:49:49;11.00;99.90
52725;DHT22;38621;52.830;6.914;2022-08-07T00:52:15;11.00;99.90
52725;DHT22;38621;52.830;6.914;2022-08-07T00:54:41;11.00;99.90
52725;DHT22;38621;52.830;6.914;2022-08-07T00:57:07;11.10;99.90
52725;DHT22;38621;52.830;6.914;2022-08-07T00:59:35;11.00;99.90
52725;DHT22;38621;52.830;6.914;2022-08-07T01:02:04;11.00;99.90
52725;DHT22;38621;52.830;6.914;2022-08-07T01:04:30;10.90;99.90
52725;DHT22;38621;52.830;6.914;2022-08-07T01:06:56;10.70;99.90
52725;DHT22;38621;52.830;6.914;2022-08-07T01:09:22;10.60;99.90
52725;DHT22;38621;52.830;6.914;2022-08-07T01:11:50;10.50;99.90
52725;DHT22;38621;52.830;6.914;2022-08-07T01:14:16;10.50;99.90
52725;DHT22;38621;52.830;6.914;2022-08-07T01:16:42;10.50;99.90
52725;DHT22;38621;52.830;6.914;2022-08-07T01:19:08;10.50;99.90
52725;DHT22;38621;52.830;6.914;2022-08-07T01:21:34;10.50;99.90
52725;DHT22;38621;52.830;6.914;2022-08-07T01:24:00;10.50;99.90
52725;DHT22;38621;52.830;6.914;2022-08-07T01:26:27;10.40;99.90
52725;DHT22;38621;52.830;6.914;2022-08-07T01:28:52;10.40;99.90
52725;DHT22;38621;52.830;6.914;2022-08-07T01:31:20;10.40;99.90
52725;DHT22;38621;52.830;6.914;2022-08-07T01:33:46;10.30;99.90
52725;DHT22;38621;52.830;6.914;2022-08-07T01:36:12;10.40;99.90
52725;DHT22;38621;52.830;6.914;2022-08-07T01:38:38;10.40;99.90
52725;DHT22;38621;52.830;6.914;2022-08-07T01:41:05;10.40;99.90
52725;DHT22;38621;52.830;6.914;2022-08-07T01:43:32;10.40;99.90
52725;DHT22;38621;52.830;6.914;2022-08-07T01:45:58;10.50;99.90
52725;DHT22;38621;52.830;6.914;2022-08-07T01:48:25;10.50;99.90
52725;DHT22;38621;52.830;6.914;2022-08-07T01:51:03;10.40;99.90
52725;DHT22;38621;52.830;6.914;2022-08-07T01:53:32;10.50;99.90
52725;DHT22;38621;52.830;6.914;2022-08-07T01:56:02;10.50;99.90
52725;DHT22;38621;52.830;6.914;2022-08-07T01:58:33;10.60;99.90
52725;DHT22;38621;52.830;6.914;2022-08-07T02:01:06;10.60;99.90
52725;DHT22;38621;52.830;6.914;2022-08-07T02:03:34;10.60;99.90
52725;DHT22;38621;52.830;6.914;2022-08-07T02:06:06;10.60;99.90
52725;DHT22;38621;52.830;6.914;2022-08-07T02:08:37;10.50;99.90
52725;DHT22;38621;52.830;6.914;2022-08-07T02:11:06;10.60;99.90
52725;DHT22;38621;52.830;6.914;2022-08-07T02:13:34;10.60;99.90
52725;DHT22;38621;52.830;6.914;2022-08-07T02:16:02;10.70;99.90
52725;DHT22;38621;52.830;6.914;2022-08-07T02:18:30;10.80;99.90
52725;DHT22;38621;52.830;6.914;2022-08-07T02:20:57;10.80;99.90
52725;DHT22;38621;52.830;6.914;2022-08-07T02:23:24;10.70;99.90
52725;DHT22;38621;52.830;6.914;2022-08-07T02:25:51;10.70;99.90
52725;DHT22;38621;52.830;6.914;2022-08-07T02:28:19;10.60;99.90
52725;DHT22;38621;52.830;6.914;2022-08-07T02:30:46;10.60;99.90
52725;DHT22;38621;52.830;6.914;2022-08-07T02:33:13;10.60;99.90
52725;DHT22;38621;52.830;6.914;2022-08-07T02:35:40;10.40;99.90
52725;DHT22;38621;52.830;6.914;2022-08-07T02:38:07;10.60;99.90
52725;DHT22;38621;52.830;6.914;2022-08-07T02:40:35;10.60;99.90
52725;DHT22;38621;52.830;6.914;2022-08-07T02:43:04;10.60;99.90
52725;DHT22;38621;52.830;6.914;2022-08-07T02:45:31;10.60;99.90
52725;DHT22;38621;52.830;6.914;2022-08-07T02:47:58;10.60;99.90
52725;DHT22;38621;52.830;6.914;2022-08-07T02:50:24;10.60;99.90
52725;DHT22;38621;52.830;6.914;2022-08-07T02:53:07;10.60;99.90
52725;DHT22;38621;52.830;6.914;2022-08-07T02:55:36;10.60;99.90
52725;DHT22;38621;52.830;6.914;2022-08-07T02:58:04;10.40;99.90
52725;DHT22;38621;52.830;6.914;2022-08-07T03:00:33;10.40;99.90
52725;DHT22;38621;52.830;6.914;2022-08-07T03:03:00;10.40;99.90
52725;DHT22;38621;52.830;6.914;2022-08-07T03:05:27;10.40;99.90
52725;DHT22;38621;52.830;6.914;2022-08-07T03:07:54;10.40;99.90
52725;DHT22;38621;52.830;6.914;2022-08-07T03:10:21;10.30;99.90
52725;DHT22;38621;52.830;6.914;2022-08-07T03:12:48;10.30;99.90
52725;DHT22;38621;52.830;6.914;2022-08-07T03:15:14;10.30;99.90
52725;DHT22;38621;52.830;6.914;2022-08-07T03:17:41;10.20;99.90
52725;DHT22;38621;52.830;6.914;2022-08-07T03:20:07;10.20;99.90
52725;DHT22;38621;52.830;6.914;2022-08-07T03:22:33;10.20;99.90
52725;DHT22;38621;52.830;6.914;2022-08-07T03:25:00;10.10;99.90
52725;DHT22;38621;52.830;6.914;2022-08-07T03:27:27;10.10;99.90
52725;DHT22;38621;52.830;6.914;2022-08-07T03:29:55;10.10;99.90
52725;DHT22;38621;52.830;6.914;2022-08-07T03:32:42;10.10;99.90
52725;DHT22;38621;52.830;6.914;2022-08-07T03:35:20;10.10;99.90
52725;DHT22;38621;52.830;6.914;2022-08-07T03:37:51;10.00;99.90
52725;DHT22;38621;52.830;6.914;2022-08-07T03:40:18;9.90;99.90
52725;DHT22;38621;52.830;6.914;2022-08-07T03:42:45;9.90;99.90
52725;DHT22;38621;52.830;6.914;2022-08-07T03:45:11;9.90;99.90
52725;DHT22;38621;52.830;6.914;2022-08-07T03:47:37;9.90;99.90
52725;DHT22;38621;52.830;6.914;2022-08-07T03:50:03;9.90;99.90
52725;DHT22;38621;52.830;6.914;2022-08-07T03:52:30;9.90;99.90
52725;DHT22;38621;52.830;6.914;2022-08-07T03:54:58;9.70;99.90
52725;DHT22;38621;52.830;6.914;2022-08-07T03:57:25;9.70;99.90
52725;DHT22;38621;52.830;6.914;2022-08-07T03:59:52;9.70;99.90
52725;DHT22;38621;52.830;6.914;2022-08-07T04:02:18;9.70;99.90
52725;DHT22;38621;52.830;6.914;2022-08-07T04:04:44;9.70;99.90
52725;DHT22;38621;52.830;6.914;2022-08-07T04:07:10;9.70;99.90
52725;DHT22;38621;52.830;6.914;2022-08-07T04:09:36;9.80;99.90
52725;DHT22;38621;52.830;6.914;2022-08-07T04:12:03;9.70;99.90
52725;DHT22;38621;52.830;6.914;2022-08-07T04:14:30;9.70;99.90
52725;DHT22;38621;52.830;6.914;2022-08-07T04:16:56;9.80;99.90
52725;DHT22;38621;52.830;6.914;2022-08-07T04:19:22;9.80;99.90
52725;DHT22;38621;52.830;6.914;2022-08-07T04:21:49;9.70;99.90
52725;DHT22;38621;52.830;6.914;2022-08-07T04:24:16;9.60;99.90
52725;DHT22;38621;52.830;6.914;2022-08-07T04:26:42;9.60;99.90
52725;DHT22;38621;52.830;6.914;2022-08-07T04:29:08;9.70;99.90
52725;DHT22;38621;52.830;6.914;2022-08-07T04:31:39;9.70;99.90
52725;DHT22;38621;52.830;6.914;2022-08-07T04:34:06;9.70;99.90
52725;DHT22;38621;52.830;6.914;2022-08-07T04:36:33;9.70;99.90
52725;DHT22;38621;52.830;6.914;2022-08-07T04:39:00;9.70;99.90
52725;DHT22;38621;52.830;6.914;2022-08-07T04:41:26;9.70;99.90
52725;DHT22;38621;52.830;6.914;2022-08-07T04:43:52;9.80;99.90
52725;DHT22;38621;52.830;6.914;2022-08-07T04:46:38;9.80;99.90
52725;DHT22;38621;52.830;6.914;2022-08-07T04:49:19;9.70;99.90
52725;DHT22;38621;52.830;6.914;2022-08-07T04:55:05;9.60;99.90
52725;DHT22;38621;52.830;6.914;2022-08-07T04:58:07;9.80;99.90
52725;DHT22;38621;52.830;6.914;2022-08-07T05:00:42;9.90;99.90
52725;DHT22;38621;52.830;6.914;2022-08-07T05:03:25;10.00;99.90
52725;DHT22;38621;52.830;6.914;2022-08-07T05:06:17;10.20;99.90
52725;DHT22;38621;52.830;6.914;2022-08-07T05:09:07;10.30;99.90
52725;DHT22;38621;52.830;6.914;2022-08-07T05:11:37;10.50;99.90
52725;DHT22;38621;52.830;6.914;2022-08-07T05:14:10;10.60;99.90
52725;DHT22;38621;52.830;6.914;2022-08-07T05:16:39;10.80;99.90
52725;DHT22;38621;52.830;6.914;2022-08-07T05:19:20;10.90;99.90
52725;DHT22;38621;52.830;6.914;2022-08-07T05:21:54;11.10;99.90
52725;DHT22;38621;52.830;6.914;2022-08-07T05:24:21;11.20;99.90
52725;DHT22;38621;52.830;6.914;2022-08-07T05:26:51;11.40;99.90
52725;DHT22;38621;52.830;6.914;2022-08-07T05:29:19;11.50;99.90
52725;DHT22;38621;52.830;6.914;2022-08-07T05:31:47;11.60;99.90
52725;DHT22;38621;52.830;6.914;2022-08-07T05:34:15;11.80;99.90
52725;DHT22;38621;52.830;6.914;2022-08-07T05:36:47;11.90;99.90
52725;DHT22;38621;52.830;6.914;2022-08-07T05:39:14;12.00;99.90
52725;DHT22;38621;52.830;6.914;2022-08-07T05:41:41;12.20;99.90
52725;DHT22;38621;52.830;6.914;2022-08-07T05:44:08;12.40;99.90
52725;DHT22;38621;52.830;6.914;2022-08-07T05:46:39;12.50;99.90
52725;DHT22;38621;52.830;6.914;2022-08-07T05:49:07;12.70;99.90
52725;DHT22;38621;52.830;6.914;2022-08-07T05:51:33;12.80;99.90
52725;DHT22;38621;52.830;6.914;2022-08-07T05:54:00;13.00;99.90
52725;DHT22;38621;52.830;6.914;2022-08-07T05:56:27;13.10;99.90
52725;DHT22;38621;52.830;6.914;2022-08-07T05:58:53;13.30;99.90
52725;DHT22;38621;52.830;6.914;2022-08-07T06:01:21;13.40;99.90
52725;DHT22;38621;52.830;6.914;2022-08-07T06:03:50;13.40;99.90
52725;DHT22;38621;52.830;6.914;2022-08-07T06:06:18;13.60;99.90
52725;DHT22;38621;52.830;6.914;2022-08-07T06:08:44;13.70;99.90
52725;DHT22;38621;52.830;6.914;2022-08-07T06:11:12;13.80;99.90
52725;DHT22;38621;52.830;6.914;2022-08-07T06:13:39;13.90;99.90
52725;DHT22;38621;52.830;6.914;2022-08-07T06:16:07;14.00;99.90
52725;DHT22;38621;52.830;6.914;2022-08-07T06:18:34;14.10;99.90
52725;DHT22;38621;52.830;6.914;2022-08-07T06:21:00;14.20;99.90
52725;DHT22;38621;52.830;6.914;2022-08-07T06:23:27;14.30;99.90
52725;DHT22;38621;52.830;6.914;2022-08-07T06:25:54;14.40;99.90
52725;DHT22;38621;52.830;6.914;2022-08-07T06:28:20;14.50;99.90
52725;DHT22;38621;52.830;6.914;2022-08-07T06:30:46;14.60;99.90
52725;DHT22;38621;52.830;6.914;2022-08-07T06:33:12;14.70;99.90
52725;DHT22;38621;52.830;6.914;2022-08-07T06:35:37;14.80;99.90
52725;DHT22;38621;52.830;6.914;2022-08-07T06:38:03;15.00;99.90
52725;DHT22;38621;52.830;6.914;2022-08-07T06:40:36;15.10;99.90
52725;DHT22;38621;52.830;6.914;2022-08-07T06:43:04;15.20;99.90
52725;DHT22;38621;52.830;6.914;2022-08-07T06:45:33;15.30;99.90
52725;DHT22;38621;52.830;6.914;2022-08-07T06:47:59;15.40;99.90
52725;DHT22;38621;52.830;6.914;2022-08-07T06:50:25;15.50;99.90
52725;DHT22;38621;52.830;6.914;2022-08-07T06:52:52;15.60;99.90
52725;DHT22;38621;52.830;6.914;2022-08-07T06:55:22;15.70;99.90
52725;DHT22;38621;52.830;6.914;2022-08-07T06:57:50;15.90;99.90
52725;DHT22;38621;52.830;6.914;2022-08-07T07:00:17;16.00;99.90
52725;DHT22;38621;52.830;6.914;2022-08-07T07:02:44;16.00;99.90
52725;DHT22;38621;52.830;6.914;2022-08-07T07:05:11;16.10;99.90
52725;DHT22;38621;52.830;6.914;2022-08-07T07:07:37;16.20;99.90
52725;DHT22;38621;52.830;6.914;2022-08-07T07:10:03;16.30;99.90
52725;DHT22;38621;52.830;6.914;2022-08-07T07:12:52;16.40;99.90
52725;DHT22;38621;52.830;6.914;2022-08-07T07:15:25;16.50;99.90
52725;DHT22;38621;52.830;6.914;2022-08-07T07:20:26;16.70;99.90
52725;DHT22;38621;52.830;6.914;2022-08-07T07:22:53;16.80;99.90
52725;DHT22;38621;52.830;6.914;2022-08-07T07:25:20;16.90;99.90
52725;DHT22;38621;52.830;6.914;2022-08-07T07:30:30;17.10;99.90
52725;DHT22;38621;52.830;6.914;2022-08-07T07:32:58;17.10;99.90
52725;DHT22;38621;52.830;6.914;2022-08-07T07:35:25;17.20;99.90
52725;DHT22;38621;52.830;6.914;2022-08-07T07:37:52;17.30;99.90
52725;DHT22;38621;52.830;6.914;2022-08-07T07:40:20;17.30;99.90
52725;DHT22;38621;52.830;6.914;2022-08-07T07:42:52;17.40;99.90
52725;DHT22;38621;52.830;6.914;2022-08-07T07:45:20;17.50;99.90
52725;DHT22;38621;52.830;6.914;2022-08-07T07:47:47;17.60;99.90
52725;DHT22;38621;52.830;6.914;2022-08-07T07:50:17;17.80;99.90
52725;DHT22;38621;52.830;6.914;2022-08-07T07:52:44;17.90;99.90
52725;DHT22;38621;52.830;6.914;2022-08-07T07:55:12;17.90;99.90
52725;DHT22;38621;52.830;6.914;2022-08-07T07:57:39;18.00;99.90
52725;DHT22;38621;52.830;6.914;2022-08-07T08:00:06;18.10;99.90
52725;DHT22;38621;52.830;6.914;2022-08-07T08:02:34;18.10;99.90
52725;DHT22;38621;52.830;6.914;2022-08-07T08:05:04;18.20;99.90
52725;DHT22;38621;52.830;6.914;2022-08-07T08:07:31;18.20;99.90
52725;DHT22;38621;52.830;6.914;2022-08-07T08:09:58;18.30;99.90
52725;DHT22;38621;52.830;6.914;2022-08-07T08:12:26;18.30;99.90
52725;DHT22;38621;52.830;6.914;2022-08-07T08:14:52;18.40;99.90
52725;DHT22;38621;52.830;6.914;2022-08-07T08:17:18;18.50;99.90
52725;DHT22;38621;52.830;6.914;2022-08-07T08:19:45;18.50;99.90
52725;DHT22;38621;52.830;6.914;2022-08-07T08:22:12;18.50;99.90
52725;DHT22;38621;52.830;6.914;2022-08-07T08:24:57;18.50;99.90
52725;DHT22;38621;52.830;6.914;2022-08-07T08:27:43;18.60;99.90
52725;DHT22;38621;52.830;6.914;2022-08-07T08:30:11;18.70;99.90
52725;DHT22;38621;52.830;6.914;2022-08-07T08:32:44;18.80;99.90
52725;DHT22;38621;52.830;6.914;2022-08-07T08:35:14;18.90;99.90
52725;DHT22;38621;52.830;6.914;2022-08-07T08:37:43;18.90;99.90
52725;DHT22;38621;52.830;6.914;2022-08-07T08:40:14;19.00;99.90
52725;DHT22;38621;52.830;6.914;2022-08-07T08:42:46;19.10;99.90
52725;DHT22;38621;52.830;6.914;2022-08-07T08:45:47;19.20;99.90
52725;DHT22;38621;52.830;6.914;2022-08-07T08:50:51;19.40;99.90
52725;DHT22;38621;52.830;6.914;2022-08-07T08:53:24;19.50;99.90
52725;DHT22;38621;52.830;6.914;2022-08-07T08:55:58;19.50;99.90
52725;DHT22;38621;52.830;6.914;2022-08-07T09:01:31;19.60;99.90
52725;DHT22;38621;52.830;6.914;2022-08-07T09:04:24;19.60;99.90
52725;DHT22;38621;52.830;6.914;2022-08-07T09:07:05;19.70;99.90
52725;DHT22;38621;52.830;6.914;2022-08-07T09:10:13;19.80;99.90
52725;DHT22;38621;52.830;6.914;2022-08-07T09:15:27;20.00;99.90
52725;DHT22;38621;52.830;6.914;2022-08-07T09:18:05;20.10;99.90
52725;DHT22;38621;52.830;6.914;2022-08-07T09:26:09;20.20;99.90
52725;DHT22;38621;52.830;6.914;2022-08-07T09:28:41;20.10;99.90
52725;DHT22;38621;52.830;6.914;2022-08-07T09:31:36;20.10;99.90
52725;DHT22;38621;52.830;6.914;2022-08-07T09:34:23;20.20;99.90
52725;DHT22;38621;52.830;6.914;2022-08-07T09:37:06;20.30;99.90
52725;DHT22;38621;52.830;6.914;2022-08-07T09:45:30;20.50;99.90
52725;DHT22;38621;52.830;6.914;2022-08-07T09:51:08;20.60;99.90
52725;DHT22;38621;52.830;6.914;2022-08-07T09:53:36;20.70;99.90
52725;DHT22;38621;52.830;6.914;2022-08-07T09:56:31;20.70;99.90
52725;DHT22;38621;52.830;6.914;2022-08-07T09:59:13;20.50;99.90
52725;DHT22;38621;52.830;6.914;2022-08-07T10:04:58;20.50;99.90
52725;DHT22;38621;52.830;6.914;2022-08-07T10:13:25;20.80;99.90
52725;DHT22;38621;52.830;6.914;2022-08-07T10:30:05;21.00;99.90
52725;DHT22;38621;52.830;6.914;2022-08-07T10:35:27;20.50;99.90
52725;DHT22;38621;52.830;6.914;2022-08-07T10:38:04;20.40;99.90
52725;DHT22;38621;52.830;6.914;2022-08-07T10:40:37;20.40;99.90
52725;DHT22;38621;52.830;6.914;2022-08-07T10:43:34;20.60;99.90
52725;DHT22;38621;52.830;6.914;2022-08-07T10:46:18;20.70;99.90
52725;DHT22;38621;52.830;6.914;2022-08-07T10:49:01;20.80;99.90
52725;DHT22;38621;52.830;6.914;2022-08-07T10:52:14;20.60;99.90
52725;DHT22;38621;52.830;6.914;2022-08-07T10:54:48;20.60;99.90
52725;DHT22;38621;52.830;6.914;2022-08-07T11:00:14;20.80;99.90
52725;DHT22;38621;52.830;6.914;2022-08-07T11:03:02;20.90;99.90
52725;DHT22;38621;52.830;6.914;2022-08-07T11:05:47;20.90;99.90
52725;DHT22;38621;52.830;6.914;2022-08-07T11:14:02;21.00;99.90
52725;DHT22;38621;52.830;6.914;2022-08-07T11:22:14;20.90;99.90
52725;DHT22;38621;52.830;6.914;2022-08-07T11:30:16;21.00;99.90
52725;DHT22;38621;52.830;6.914;2022-08-07T11:33:07;21.00;99.90
52725;DHT22;38621;52.830;6.914;2022-08-07T11:35:45;21.10;99.90
52725;DHT22;38621;52.830;6.914;2022-08-07T11:38:30;21.20;99.90
52725;DHT22;38621;52.830;6.914;2022-08-07T11:43:33;21.40;99.90
52725;DHT22;38621;52.830;6.914;2022-08-07T11:46:27;21.40;99.90
52725;DHT22;38621;52.830;6.914;2022-08-07T11:49:33;21.50;99.90
52725;DHT22;38621;52.830;6.914;2022-08-07T11:55:22;21.50;99.90
52725;DHT22;38621;52.830;6.914;2022-08-07T12:08:52;21.60;99.90
52725;DHT22;38621;52.830;6.914;2022-08-07T12:11:21;21.70;99.90
52725;DHT22;38621;52.830;6.914;2022-08-07T12:16:21;21.70;99.90
52725;DHT22;38621;52.830;6.914;2022-08-07T12:21:36;21.50;99.90
52725;DHT22;38621;52.830;6.914;2022-08-07T12:24:19;21.50;99.90
52725;DHT22;38621;52.830;6.914;2022-08-07T12:30:08;21.70;99.90
52725;DHT22;38621;52.830;6.914;2022-08-07T12:32:59;21.80;99.90
52725;DHT22;38621;52.830;6.914;2022-08-07T12:35:26;21.90;99.90
52725;DHT22;38621;52.830;6.914;2022-08-07T12:37:53;22.00;99.90
52725;DHT22;38621;52.830;6.914;2022-08-07T12:40:22;22.10;99.90
52725;DHT22;38621;52.830;6.914;2022-08-07T12:42:55;22.10;99.90
52725;DHT22;38621;52.830;6.914;2022-08-07T12:45:25;22.10;99.90
52725;DHT22;38621;52.830;6.914;2022-08-07T12:48:03;22.10;99.90
52725;DHT22;38621;52.830;6.914;2022-08-07T12:50:41;22.10;99.90
52725;DHT22;38621;52.830;6.914;2022-08-07T12:55:49;22.30;99.90
52725;DHT22;38621;52.830;6.914;2022-08-07T12:58:17;22.50;99.90
52725;DHT22;38621;52.830;6.914;2022-08-07T13:01:02;22.60;99.90
52725;DHT22;38621;52.830;6.914;2022-08-07T13:10:02;22.70;99.50
52725;DHT22;38621;52.830;6.914;2022-08-07T13:12:31;22.70;98.70
52725;DHT22;38621;52.830;6.914;2022-08-07T13:15:18;22.80;98.50
52725;DHT22;38621;52.830;6.914;2022-08-07T13:20:33;22.80;98.50
52725;DHT22;38621;52.830;6.914;2022-08-07T13:23:06;22.70;97.50
52725;DHT22;38621;52.830;6.914;2022-08-07T13:25:39;22.50;96.70
52725;DHT22;38621;52.830;6.914;2022-08-07T13:28:19;22.50;96.90
52725;DHT22;38621;52.830;6.914;2022-08-07T13:30:57;22.60;96.80
52725;DHT22;38621;52.830;6.914;2022-08-07T13:33:32;22.70;97.00
52725;DHT22;38621;52.830;6.914;2022-08-07T13:36:15;22.60;97.00
52725;DHT22;38621;52.830;6.914;2022-08-07T13:41:47;22.40;97.40
52725;DHT22;38621;52.830;6.914;2022-08-07T13:44:24;22.30;97.60
52725;DHT22;38621;52.830;6.914;2022-08-07T13:46:55;22.30;97.60
52725;DHT22;38621;52.830;6.914;2022-08-07T13:49:23;22.20;97.50
52725;DHT22;38621;52.830;6.914;2022-08-07T13:51:51;22.10;97.60
52725;DHT22;38621;52.830;6.914;2022-08-07T13:54:20;22.10;97.40
52725;DHT22;38621;52.830;6.914;2022-08-07T13:56:53;22.20;97.70
52725;DHT22;38621;52.830;6.914;2022-08-07T13:59:24;22.20;98.10
52725;DHT22;38621;52.830;6.914;2022-08-07T14:01:57;22.40;97.90
52725;DHT22;38621;52.830;6.914;2022-08-07T14:04:35;22.50;97.70
52725;DHT22;38621;52.830;6.914;2022-08-07T14:07:04;22.50;97.60
52725;DHT22;38621;52.830;6.914;2022-08-07T14:09:33;22.70;96.50
52725;DHT22;38621;52.830;6.914;2022-08-07T14:12:06;22.80;96.10
52725;DHT22;38621;52.830;6.914;2022-08-07T14:14:42;23.00;95.50
52725;DHT22;38621;52.830;6.914;2022-08-07T14:17:11;23.10;94.80
52725;DHT22;38621;52.830;6.914;2022-08-07T14:19:51;23.20;94.90
52725;DHT22;38621;52.830;6.914;2022-08-07T14:22:24;23.30;93.50
52725;DHT22;38621;52.830;6.914;2022-08-07T14:24:56;23.30;93.80
52725;DHT22;38621;52.830;6.914;2022-08-07T14:27:35;23.30;93.70
52725;DHT22;38621;52.830;6.914;2022-08-07T14:30:09;23.20;93.40
52725;DHT22;38621;52.830;6.914;2022-08-07T14:32:49;23.20;92.90
52725;DHT22;38621;52.830;6.914;2022-08-07T14:35:21;23.10;92.90
52725;DHT22;38621;52.830;6.914;2022-08-07T14:37:49;23.00;93.00
52725;DHT22;38621;52.830;6.914;2022-08-07T14:40:19;23.00;93.30
52725;DHT22;38621;52.830;6.914;2022-08-07T14:43:11;23.20;93.30
52725;DHT22;38621;52.830;6.914;2022-08-07T14:45:45;23.30;93.70
52725;DHT22;38621;52.830;6.914;2022-08-07T14:48:19;23.50;93.40
52725;DHT22;38621;52.830;6.914;2022-08-07T14:50:53;23.40;93.40
52725;DHT22;38621;52.830;6.914;2022-08-07T14:53:21;23.20;93.00
52725;DHT22;38621;52.830;6.914;2022-08-07T14:55:47;23.10;93.20
52725;DHT22;38621;52.830;6.914;2022-08-07T14:58:15;22.90;93.20
52725;DHT22;38621;52.830;6.914;2022-08-07T15:00:43;22.90;93.10
52725;DHT22;38621;52.830;6.914;2022-08-07T15:03:12;22.90;92.80
52725;DHT22;38621;52.830;6.914;2022-08-07T15:05:40;23.00;92.90
52725;DHT22;38621;52.830;6.914;2022-08-07T15:08:08;23.10;92.70
52725;DHT22;38621;52.830;6.914;2022-08-07T15:10:38;23.30;92.70
52725;DHT22;38621;52.830;6.914;2022-08-07T15:13:14;23.30;92.60
52725;DHT22;38621;52.830;6.914;2022-08-07T15:15:44;23.40;92.60
52725;DHT22;38621;52.830;6.914;2022-08-07T15:18:14;23.50;92.30
52725;DHT22;38621;52.830;6.914;2022-08-07T15:20:43;23.60;92.50
52725;DHT22;38621;52.830;6.914;2022-08-07T15:23:27;23.70;92.60
52725;DHT22;38621;52.830;6.914;2022-08-07T15:25:57;23.70;92.40
52725;DHT22;38621;52.830;6.914;2022-08-07T15:28:26;23.80;92.00
52725;DHT22;38621;52.830;6.914;2022-08-07T15:31:01;23.70;92.00
52725;DHT22;38621;52.830;6.914;2022-08-07T15:33:29;23.70;91.40
52725;DHT22;38621;52.830;6.914;2022-08-07T15:35:56;23.70;92.00
52725;DHT22;38621;52.830;6.914;2022-08-07T15:38:26;23.70;92.10
52725;DHT22;38621;52.830;6.914;2022-08-07T15:40:52;23.90;92.20
52725;DHT22;38621;52.830;6.914;2022-08-07T15:43:25;23.90;92.00
52725;DHT22;38621;52.830;6.914;2022-08-07T15:45:53;24.00;92.20
52725;DHT22;38621;52.830;6.914;2022-08-07T15:50:52;24.60;92.40
52725;DHT22;38621;52.830;6.914;2022-08-07T15:53:33;25.10;92.00
52725;DHT22;38621;52.830;6.914;2022-08-07T15:56:03;25.20;92.20
52725;DHT22;38621;52.830;6.914;2022-08-07T15:58:49;25.30;92.10
52725;DHT22;38621;52.830;6.914;2022-08-07T16:01:22;25.20;92.50
52725;DHT22;38621;52.830;6.914;2022-08-07T16:03:52;25.20;92.20
52725;DHT22;38621;52.830;6.914;2022-08-07T16:08:56;25.40;92.50
52725;DHT22;38621;52.830;6.914;2022-08-07T16:11:41;25.20;92.50
52725;DHT22;38621;52.830;6.914;2022-08-07T16:14:44;25.20;93.00
52725;DHT22;38621;52.830;6.914;2022-08-07T16:19:54;27.50;91.90
52725;DHT22;38621;52.830;6.914;2022-08-07T16:28:31;30.00;90.20
52725;DHT22;38621;52.830;6.914;2022-08-07T16:33:58;29.40;88.60
52725;DHT22;38621;52.830;6.914;2022-08-07T16:37:05;29.20;90.00
52725;DHT22;38621;52.830;6.914;2022-08-07T16:43:06;29.30;87.50
52725;DHT22;38621;52.830;6.914;2022-08-07T16:56:31;30.10;86.20
52725;DHT22;38621;52.830;6.914;2022-08-07T17:01:47;28.80;86.90
52725;DHT22;38621;52.830;6.914;2022-08-07T17:04:34;27.80;87.10
52725;DHT22;38621;52.830;6.914;2022-08-07T17:07:26;27.00;88.50
52725;DHT22;38621;52.830;6.914;2022-08-07T17:12:35;25.80;90.00
52725;DHT22;38621;52.830;6.914;2022-08-07T17:17:54;25.00;90.50
52725;DHT22;38621;52.830;6.914;2022-08-07T17:20:35;24.70;90.70
52725;DHT22;38621;52.830;6.914;2022-08-07T17:23:15;24.50;91.00
52725;DHT22;38621;52.830;6.914;2022-08-07T17:31:16;23.90;91.70
52725;DHT22;38621;52.830;6.914;2022-08-07T17:33:58;23.90;91.80
52725;DHT22;38621;52.830;6.914;2022-08-07T17:36:29;23.90;92.10
52725;DHT22;38621;52.830;6.914;2022-08-07T17:39:20;23.80;92.20
52725;DHT22;38621;52.830;6.914;2022-08-07T17:42:00;23.70;92.80
52725;DHT22;38621;52.830;6.914;2022-08-07T17:47:09;23.30;93.10
52725;DHT22;38621;52.830;6.914;2022-08-07T17:49:39;23.10;93.40
52725;DHT22;38621;52.830;6.914;2022-08-07T17:52:10;22.90;93.80
52725;DHT22;38621;52.830;6.914;2022-08-07T17:55:04;22.80;94.10
52725;DHT22;38621;52.830;6.914;2022-08-07T18:00:07;22.50;95.00
52725;DHT22;38621;52.830;6.914;2022-08-07T18:02:50;22.40;95.00
52725;DHT22;38621;52.830;6.914;2022-08-07T18:05:44;22.40;95.40
52725;DHT22;38621;52.830;6.914;2022-08-07T18:08:26;22.30;96.00
52725;DHT22;38621;52.830;6.914;2022-08-07T18:11:13;22.20;96.00
52725;DHT22;38621;52.830;6.914;2022-08-07T18:16:33;22.10;96.70
52725;DHT22;38621;52.830;6.914;2022-08-07T18:19:21;22.00;96.90
52725;DHT22;38621;52.830;6.914;2022-08-07T18:22:04;21.90;97.30
52725;DHT22;38621;52.830;6.914;2022-08-07T18:24:44;21.80;97.50
52725;DHT22;38621;52.830;6.914;2022-08-07T18:27:35;21.70;97.90
52725;DHT22;38621;52.830;6.914;2022-08-07T18:30:32;21.60;98.60
52725;DHT22;38621;52.830;6.914;2022-08-07T18:41:46;21.30;99.90
52725;DHT22;38621;52.830;6.914;2022-08-07T18:44:25;21.20;99.90
52725;DHT22;38621;52.830;6.914;2022-08-07T18:47:30;21.20;99.90
52725;DHT22;38621;52.830;6.914;2022-08-07T18:58:24;21.30;99.90
52725;DHT22;38621;52.830;6.914;2022-08-07T19:03:46;21.20;99.90
52725;DHT22;38621;52.830;6.914;2022-08-07T19:06:26;21.00;99.90
52725;DHT22;38621;52.830;6.914;2022-08-07T19:11:26;20.70;99.90
52725;DHT22;38621;52.830;6.914;2022-08-07T19:14:10;20.50;99.90
52725;DHT22;38621;52.830;6.914;2022-08-07T19:16:56;20.40;99.90